Time;durP1;ratioP1;P1;durP2;ratioP2;P2;SDS_P1;SDS_P2;PMS_P1;PMS_P2;Temp;Humidity;BMP_temperature;BMP_pressure;BME280_temperature;BME280_humidity;BME280_pressure;Samples;Min_cycle;Max_cycle;Signal;HPM_P1;HPM_P2
2023/04/10 00:01:10;;;;;;;3.03;0.80;;;20.90;74.90;;;;;;5114541;28;20247;-70
2023/04/10 00:03:38;;;;;;;2.07;0.77;;;21.30;75.00;;;;;;5112332;28;20190;-70
2023/04/10 00:06:06;;;;;;;2.70;0.60;;;21.70;68.30;;;;;;5113907;28;20676;-72
2023/04/10 00:08:34;;;;;;;0.90;0.60;;;21.30;62.70;;;;;;5114344;28;20639;-71
2023/04/10 00:11:02;;;;;;;1.87;0.70;;;21.60;62.60;;;;;;5110868;28;20245;-70
2023/04/10 00:13:30;;;;;;;1.73;0.80;;;21.80;67.50;;;;;;5096214;28;20692;-72
2023/04/10 00:15:58;;;;;;;2.23;0.67;;;21.80;58.60;;;;;;5104092;28;20191;-72
2023/04/10 00:18:26;;;;;;;2.30;0.70;;;22.00;61.50;;;;;;5096977;28;20296;-70
2023/04/10 00:20:53;;;;;;;2.67;1.00;;;22.20;59.30;;;;;;5092341;28;20179;-72
2023/04/10 00:23:21;;;;;;;1.13;0.70;;;22.40;58.20;;;;;;5098433;28;20200;-71
2023/04/10 00:25:49;;;;;;;1.13;0.60;;;22.50;57.30;;;;;;5109718;28;20183;-72
2023/04/10 00:28:17;;;;;;;2.23;0.63;;;22.20;57.10;;;;;;5113670;28;20183;-73
2023/04/10 00:30:45;;;;;;;1.87;1.10;;;22.00;53.70;;;;;;5114420;28;20177;-72
2023/04/10 00:33:12;;;;;;;2.07;0.50;;;21.90;53.30;;;;;;5106491;28;20210;-73
2023/04/10 00:35:40;;;;;;;0.93;0.60;;;21.70;51.80;;;;;;5105232;28;20198;-71
2023/04/10 00:38:08;;;;;;;1.47;0.57;;;21.50;52.10;;;;;;5114179;28;20179;-71
2023/04/10 00:40:36;;;;;;;0.73;0.50;;;22.10;51.30;;;;;;5113981;28;20178;-72
2023/04/10 00:43:03;;;;;;;1.17;0.53;;;22.70;50.10;;;;;;5097308;28;20183;-74
2023/04/10 00:45:31;;;;;;;1.20;0.40;;;23.10;48.30;;;;;;5093726;28;20579;-73
2023/04/10 00:47:59;;;;;;;2.63;0.57;;;22.50;49.20;;;;;;5093485;28;20212;-73
2023/04/10 00:50:27;;;;;;;1.13;0.60;;;22.40;47.80;;;;;;5094547;28;20171;-72
2023/04/10 00:52:56;;;;;;;4.37;0.83;;;22.70;47.10;;;;;;5112831;28;20187;-73
2023/04/10 00:55:25;;;;;;;1.27;0.60;;;22.70;47.40;;;;;;5104757;28;20342;-72
2023/04/10 00:57:54;;;;;;;2.40;0.87;;;23.00;46.10;;;;;;5110462;28;20182;-71
2023/04/10 01:00:22;;;;;;;1.50;0.60;;;23.30;44.20;;;;;;5112811;28;20197;-72
2023/04/10 01:02:50;;;;;;;1.43;0.60;;;23.70;45.50;;;;;;5113577;28;20185;-72
2023/04/10 01:05:18;;;;;;;3.03;0.50;;;23.50;45.20;;;;;;5106516;28;20187;-72
2023/04/10 01:08:24;;;;;;;1.57;0.43;;;23.40;40.80;;;;;;5091805;28;20186;-73
2023/04/10 01:10:55;;;;;;;0.80;0.50;;;23.10;39.70;;;;;;5011962;28;20213;-72
2023/04/10 01:13:41;;;;;;;1.20;0.67;;;23.40;39.50;;;;;;4993714;28;20600;-71
2023/04/10 01:16:50;;;;;;;3.53;0.70;;;23.10;40.80;;;;;;5064276;28;20213;-72
2023/04/10 01:19:41;;;;;;;1.23;0.50;;;23.20;41.10;;;;;;5092189;28;20206;-69
2023/04/10 01:22:13;;;;;;;3.63;0.80;;;23.50;42.00;;;;;;5092938;28;20171;-72
2023/04/10 01:25:13;;;;;;;1.73;0.60;;;23.20;38.30;;;;;;5105906;28;20309;-72
2023/04/10 01:27:46;;;;;;;3.87;0.70;;;23.20;39.80;;;;;;5083456;28;20198;-72
2023/04/10 01:30:19;;;;;;;1.50;0.70;;;23.80;39.40;;;;;;5100451;28;20210;-70
2023/04/10 01:32:48;;;;;;;1.80;0.73;;;24.10;36.30;;;;;;5092494;28;20167;-71
2023/04/10 01:35:16;;;;;;;1.20;0.47;;;23.60;37.40;;;;;;5092121;28;20175;-72
2023/04/10 01:37:47;;;;;;;2.10;0.57;;;24.10;35.70;;;;;;5101278;28;20175;-72
2023/04/10 01:40:17;;;;;;;0.87;0.50;;;25.00;34.90;;;;;;5092590;28;20198;-72
2023/04/10 01:42:50;;;;;;;1.17;0.57;;;25.00;32.30;;;;;;5100985;28;20179;-72
2023/04/10 01:45:22;;;;;;;1.60;0.57;;;24.40;35.40;;;;;;5102039;28;20191;-70
2023/04/10 01:47:51;;;;;;;2.40;0.50;;;23.90;34.30;;;;;;5096513;28;20194;-71
2023/04/10 01:50:23;;;;;;;1.30;0.43;;;24.00;35.40;;;;;;5094949;28;20214;-73
2023/04/10 01:52:52;;;;;;;1.33;0.50;;;23.80;32.60;;;;;;5092145;28;20669;-71
2023/04/10 01:55:21;;;;;;;1.40;0.67;;;23.90;34.50;;;;;;5090889;28;20175;-72
2023/04/10 01:57:49;;;;;;;1.00;0.50;;;23.60;33.40;;;;;;5092251;28;20183;-72
2023/04/10 02:00:17;;;;;;;1.13;0.57;;;23.90;34.40;;;;;;5092155;28;20171;-72
2023/04/10 02:02:45;;;;;;;1.77;0.60;;;24.00;33.20;;;;;;5092140;28;20171;-72
2023/04/10 02:05:15;;;;;;;0.70;0.60;;;23.40;31.90;;;;;;5090919;28;20561;-72
2023/04/10 02:08:10;;;;;;;0.97;0.70;;;23.90;36.30;;;;;;5092077;28;20171;-72
2023/04/10 02:10:44;;;;;;;1.07;0.43;;;24.50;32.20;;;;;;5091526;28;20194;-70
2023/04/10 02:13:18;;;;;;;1.50;0.80;;;24.00;30.60;;;;;;5090229;28;20202;-72
2023/04/10 02:15:49;;;;;;;1.23;0.57;;;24.10;32.80;;;;;;5091909;28;20176;-72
2023/04/10 02:18:19;;;;;;;1.03;0.50;;;24.20;35.90;;;;;;5091138;28;21014;-71
2023/04/10 02:20:47;;;;;;;1.17;0.60;;;25.20;33.90;;;;;;5098181;28;20179;-73
2023/04/10 02:23:18;;;;;;;0.73;0.40;;;25.20;30.90;;;;;;5112016;28;20276;-71
2023/04/10 02:25:45;;;;;;;1.00;0.50;;;24.50;31.90;;;;;;5111610;28;20257;-72
2023/04/10 02:28:13;;;;;;;2.40;0.60;;;24.60;30.30;;;;;;5111731;28;20171;-72
2023/04/10 02:30:41;;;;;;;3.43;0.50;;;24.80;28.90;;;;;;5112064;28;20174;-72
2023/04/10 02:33:09;;;;;;;1.23;0.50;;;25.20;29.90;;;;;;5111389;28;20291;-72
2023/04/10 02:35:37;;;;;;;2.23;0.63;;;25.10;31.00;;;;;;5112005;28;20296;-71
2023/04/10 02:38:05;;;;;;;2.47;0.67;;;24.60;29.60;;;;;;5111996;28;20177;-69
2023/04/10 02:40:32;;;;;;;1.50;0.67;;;23.60;30.20;;;;;;5109838;28;20320;-73
2023/04/10 02:43:01;;;;;;;1.33;0.60;;;23.00;30.00;;;;;;5112001;28;20171;-72
2023/04/10 02:45:28;;;;;;;1.67;0.43;;;23.50;30.30;;;;;;5111796;28;20551;-73
2023/04/10 02:47:56;;;;;;;1.13;0.40;;;23.90;28.90;;;;;;5111166;28;20178;-71
2023/04/10 02:50:28;;;;;;;1.27;0.50;;;23.70;25.60;;;;;;5110513;28;20182;-70
2023/04/10 02:52:56;;;;;;;1.30;0.40;;;24.30;29.60;;;;;;5111270;28;20270;-73
2023/04/10 02:55:24;;;;;;;1.40;0.40;;;24.50;27.60;;;;;;5111371;28;20176;-71
2023/04/10 02:57:52;;;;;;;3.70;0.53;;;25.40;26.90;;;;;;5106755;28;20274;-70
2023/04/10 03:00:20;;;;;;;1.60;0.70;;;25.40;29.70;;;;;;5091295;28;20209;-74
2023/04/10 03:02:48;;;;;;;1.73;0.40;;;25.60;30.60;;;;;;5094711;28;20187;-70
2023/04/10 03:05:15;;;;;;;1.30;0.40;;;25.90;28.20;;;;;;5093663;28;20172;-70
2023/04/10 03:07:43;;;;;;;1.40;0.57;;;25.20;24.70;;;;;;5108077;28;20178;-71
2023/04/10 03:10:11;;;;;;;0.30;0.30;;;25.20;25.40;;;;;;5112228;28;20163;-71
2023/04/10 03:12:39;;;;;;;1.53;0.70;;;24.90;24.50;;;;;;5111165;28;20182;-71
2023/04/10 03:15:07;;;;;;;1.37;0.50;;;24.60;25.00;;;;;;5112823;28;20222;-71
2023/04/10 03:17:35;;;;;;;0.63;0.40;;;24.30;25.90;;;;;;5112702;28;20238;-71
2023/04/10 03:20:03;;;;;;;1.90;0.83;;;24.80;26.20;;;;;;5115639;28;20586;-72
2023/04/10 03:22:31;;;;;;;1.10;0.60;;;25.10;25.00;;;;;;5115414;28;20178;-70
2023/04/10 03:25:00;;;;;;;2.23;0.50;;;25.20;24.80;;;;;;5114901;28;20649;-72
2023/04/10 03:27:30;;;;;;;1.13;0.50;;;25.50;25.20;;;;;;5115232;28;20187;-72
2023/04/10 03:29:58;;;;;;;0.77;0.37;;;25.50;22.20;;;;;;5115079;28;20186;-69
2023/04/10 03:32:27;;;;;;;2.10;0.70;;;26.00;22.00;;;;;;5114730;28;20201;-72
2023/04/10 03:34:54;;;;;;;0.70;0.43;;;25.00;22.60;;;;;;5115134;28;20218;-71
2023/04/10 03:37:22;;;;;;;0.97;0.40;;;24.00;22.20;;;;;;5114771;28;20675;-70
2023/04/10 03:39:50;;;;;;;0.97;0.40;;;23.20;23.80;;;;;;5114281;28;20185;-72
2023/04/10 03:42:18;;;;;;;0.50;0.50;;;23.90;25.00;;;;;;5114967;28;20214;-72
2023/04/10 03:44:45;;;;;;;3.07;1.00;;;24.40;24.60;;;;;;5111968;28;20281;-71
2023/04/10 03:47:13;;;;;;;1.90;0.60;;;24.90;20.50;;;;;;5094373;28;20195;-72
2023/04/10 03:49:41;;;;;;;0.60;0.50;;;24.80;19.10;;;;;;5094755;28;20279;-72
2023/04/10 03:52:09;;;;;;;1.17;0.50;;;24.40;20.70;;;;;;5094661;28;20203;-72
2023/04/10 03:54:36;;;;;;;2.30;0.50;;;24.40;21.70;;;;;;5094160;28;20226;-77
2023/04/10 03:57:05;;;;;;;3.20;0.53;;;23.90;20.10;;;;;;5094697;28;20183;-74
2023/04/10 03:59:32;;;;;;;1.00;0.43;;;24.00;20.80;;;;;;5094840;28;20179;-74
2023/04/10 04:02:00;;;;;;;1.67;0.60;;;23.80;20.90;;;;;;5094086;28;20270;-74
2023/04/10 04:04:30;;;;;;;0.93;0.50;;;24.50;19.60;;;;;;5094409;28;20174;-74
2023/04/10 04:06:58;;;;;;;2.60;0.70;;;23.80;17.80;;;;;;5093029;28;20183;-74
2023/04/10 04:09:25;;;;;;;0.70;0.50;;;23.20;19.60;;;;;;5093891;28;20270;-73
2023/04/10 04:11:53;;;;;;;1.80;0.77;;;23.50;20.60;;;;;;5098733;28;20179;-73
2023/04/10 04:14:21;;;;;;;0.70;0.60;;;23.70;21.40;;;;;;5098846;28;20222;-73
2023/04/10 04:16:49;;;;;;;0.67;0.47;;;23.90;18.80;;;;;;5093636;28;20219;-71
2023/04/10 04:19:17;;;;;;;1.13;0.40;;;23.80;17.80;;;;;;5107661;28;20182;-75
2023/04/10 04:21:45;;;;;;;1.70;0.60;;;23.60;17.20;;;;;;5114563;28;20282;-73
2023/04/10 04:24:13;;;;;;;0.83;0.70;;;23.70;18.20;;;;;;5114086;28;20182;-72
2023/04/10 04:26:40;;;;;;;2.30;0.53;;;23.90;18.00;;;;;;5108255;28;20174;-72
2023/04/10 04:29:08;;;;;;;0.97;0.50;;;23.90;16.70;;;;;;5103312;28;20189;-73
2023/04/10 04:31:36;;;;;;;2.80;0.50;;;24.00;17.70;;;;;;5098566;28;20609;-73
2023/04/10 04:34:04;;;;;;;1.07;0.50;;;24.00;16.50;;;;;;5104396;28;20222;-72
2023/04/10 04:36:31;;;;;;;2.40;0.50;;;24.00;18.50;;;;;;5106718;28;20201;-74
2023/04/10 04:38:59;;;;;;;1.53;0.60;;;23.90;16.80;;;;;;5111950;28;20201;-75
2023/04/10 04:41:29;;;;;;;1.60;0.97;;;23.50;17.40;;;;;;5114118;28;20183;-73
2023/04/10 04:43:57;;;;;;;1.83;0.70;;;23.20;17.40;;;;;;5103231;28;20267;-73
2023/04/10 04:46:25;;;;;;;3.73;0.60;;;23.50;17.40;;;;;;5098724;28;20265;-74
2023/04/10 04:48:53;;;;;;;0.60;0.50;;;23.30;17.70;;;;;;5094355;28;20289;-73
2023/04/10 04:51:21;;;;;;;3.23;0.80;;;23.50;17.20;;;;;;5114002;28;20175;-73
2023/04/10 04:53:49;;;;;;;1.30;0.70;;;22.70;17.50;;;;;;5113097;28;20221;-73
2023/04/10 04:56:16;;;;;;;1.47;0.90;;;22.10;18.10;;;;;;5105213;28;20550;-72
2023/04/10 04:58:44;;;;;;;0.93;0.47;;;22.50;20.10;;;;;;5093090;28;20252;-66
2023/04/10 05:01:12;;;;;;;2.03;0.70;;;22.90;18.40;;;;;;5096975;28;20169;-73
2023/04/10 05:03:40;;;;;;;2.33;1.30;;;23.10;19.50;;;;;;5113608;28;20181;-72
2023/04/10 05:06:08;;;;;;;2.53;0.70;;;22.80;18.80;;;;;;5112549;28;20641;-70
2023/04/10 05:08:36;;;;;;;1.93;0.50;;;22.80;19.20;;;;;;5093683;28;20201;-72
2023/04/10 05:11:03;;;;;;;0.80;0.60;;;22.60;18.70;;;;;;5093165;28;20167;-72
2023/04/10 05:13:31;;;;;;;1.40;0.50;;;22.40;18.90;;;;;;5092879;28;20314;-72
2023/04/10 05:15:59;;;;;;;1.87;0.90;;;22.40;19.50;;;;;;5092525;28;20186;-72
2023/04/10 05:18:27;;;;;;;2.20;0.90;;;22.30;20.10;;;;;;5092836;28;20219;-73
2023/04/10 05:20:55;;;;;;;2.57;0.70;;;22.20;19.80;;;;;;5108367;28;20683;-74
2023/04/10 05:23:23;;;;;;;1.30;0.73;;;22.30;20.10;;;;;;5112889;28;20174;-73
2023/04/10 05:25:51;;;;;;;0.67;0.53;;;22.20;17.50;;;;;;5112655;28;20262;-74
2023/04/10 05:28:19;;;;;;;0.90;0.50;;;22.00;17.80;;;;;;5112752;28;20274;-71
2023/04/10 05:30:47;;;;;;;0.90;0.50;;;22.00;18.10;;;;;;5111140;28;20270;-74
2023/04/10 05:33:15;;;;;;;1.83;0.80;;;22.10;19.20;;;;;;5092634;28;20199;-73
2023/04/10 05:35:42;;;;;;;1.90;1.10;;;22.20;18.20;;;;;;5092717;28;20198;-73
2023/04/10 05:38:10;;;;;;;4.23;1.63;;;22.30;17.80;;;;;;5106806;28;20186;-73
2023/04/10 05:40:38;;;;;;;2.07;1.00;;;22.20;16.30;;;;;;5113041;28;20182;-72
2023/04/10 05:43:06;;;;;;;2.90;1.50;;;22.10;16.60;;;;;;5112639;28;20228;-72
2023/04/10 05:45:33;;;;;;;1.10;0.80;;;22.00;17.30;;;;;;5111809;28;20654;-74
2023/04/10 05:48:02;;;;;;;1.70;0.50;;;21.80;18.30;;;;;;5097896;28;20679;-74
2023/04/10 05:50:30;;;;;;;1.20;1.00;;;21.70;17.70;;;;;;5092403;28;20186;-74
2023/04/10 05:52:58;;;;;;;0.77;0.50;;;21.60;18.50;;;;;;5095439;28;20234;-71
2023/04/10 05:55:26;;;;;;;2.00;1.03;;;21.70;18.80;;;;;;5109858;28;20256;-74
2023/04/10 05:57:53;;;;;;;2.20;0.93;;;21.70;18.50;;;;;;5104512;28;20549;-74
2023/04/10 06:00:21;;;;;;;4.07;0.77;;;21.70;19.40;;;;;;5113663;28;20303;-75
2023/04/10 06:02:49;;;;;;;0.83;0.53;;;21.60;19.20;;;;;;5112686;28;20174;-74
2023/04/10 06:05:17;;;;;;;2.73;0.70;;;21.50;19.50;;;;;;5112174;28;20213;-73
2023/04/10 06:07:45;;;;;;;1.60;0.60;;;21.40;20.50;;;;;;5109588;28;20192;-74
2023/04/10 06:10:13;;;;;;;1.27;0.80;;;21.30;19.90;;;;;;5111837;28;20710;-73
2023/04/10 06:12:42;;;;;;;1.57;0.70;;;21.10;20.10;;;;;;5105094;28;20187;-75
2023/04/10 06:15:10;;;;;;;1.03;0.57;;;21.00;20.10;;;;;;5109683;28;20229;-73
2023/04/10 06:17:44;;;;;;;1.43;0.60;;;21.00;20.10;;;;;;5112422;28;20370;-72
2023/04/10 06:20:12;;;;;;;1.23;0.77;;;21.00;20.40;;;;;;5112754;28;20644;-74
2023/04/10 06:22:40;;;;;;;1.20;0.70;;;21.10;21.10;;;;;;5111607;28;20174;-73
2023/04/10 06:25:08;;;;;;;1.73;0.70;;;21.00;19.90;;;;;;5112465;28;20174;-74
2023/04/10 06:27:36;;;;;;;2.70;0.67;;;20.90;20.30;;;;;;5111999;28;20892;-73
2023/04/10 06:30:04;;;;;;;1.77;0.60;;;20.70;20.10;;;;;;5098274;28;20295;-73
2023/04/10 06:32:32;;;;;;;1.43;0.70;;;20.70;20.90;;;;;;5112184;28;20178;-75
2023/04/10 06:35:00;;;;;;;1.17;0.60;;;20.70;21.70;;;;;;5100583;28;20221;-72
2023/04/10 06:37:31;;;;;;;1.47;0.77;;;20.50;22.50;;;;;;5102225;28;20247;-72
2023/04/10 06:40:10;;;;;;;1.17;0.60;;;20.50;22.70;;;;;;5111798;28;20185;-72
2023/04/10 06:42:39;;;;;;;1.60;1.10;;;20.60;22.20;;;;;;5111882;28;20181;-72
2023/04/10 06:45:08;;;;;;;1.90;1.33;;;20.60;22.00;;;;;;5110978;28;20193;-73
2023/04/10 06:47:36;;;;;;;2.83;1.37;;;20.60;22.40;;;;;;5109805;28;20190;-72
2023/04/10 06:50:04;;;;;;;2.37;1.03;;;20.50;22.30;;;;;;5106376;28;20222;-73
2023/04/10 06:52:32;;;;;;;1.20;0.60;;;20.50;23.10;;;;;;5094188;28;20269;-73
2023/04/10 06:55:00;;;;;;;2.53;0.40;;;20.50;23.20;;;;;;5097927;28;20214;-72
2023/04/10 06:57:28;;;;;;;1.20;0.80;;;20.40;22.80;;;;;;5109694;28;20194;-74
2023/04/10 06:59:55;;;;;;;1.60;0.80;;;20.20;23.30;;;;;;5114676;28;20649;-74
2023/04/10 07:02:22;;;;;;;0.63;0.60;;;20.10;24.00;;;;;;5115513;28;20252;-74
2023/04/10 07:04:50;;;;;;;1.73;0.60;;;20.10;24.00;;;;;;5115023;28;20179;-73
2023/04/10 07:07:18;;;;;;;1.57;0.70;;;20.00;24.40;;;;;;5115010;28;20180;-73
2023/04/10 07:09:45;;;;;;;6.80;1.33;;;19.90;24.70;;;;;;5111801;28;20198;-74
2023/04/10 07:12:13;;;;;;;1.77;0.70;;;19.80;26.20;;;;;;5094793;28;20177;-74
2023/04/10 07:14:40;;;;;;;1.83;0.90;;;19.80;25.50;;;;;;5094353;28;20653;-72
2023/04/10 07:17:08;;;;;;;1.53;1.00;;;19.70;26.10;;;;;;5094356;28;20215;-74
2023/04/10 07:19:36;;;;;;;2.13;1.10;;;19.60;26.50;;;;;;5094966;28;20186;-73
2023/04/10 07:22:04;;;;;;;2.90;0.60;;;19.40;26.80;;;;;;5094365;28;20186;-75
2023/04/10 07:24:32;;;;;;;0.70;0.60;;;19.30;27.20;;;;;;5099533;28;20174;-71
2023/04/10 07:27:00;;;;;;;2.13;0.90;;;19.10;27.60;;;;;;5103078;28;20190;-73
2023/04/10 07:29:30;;;;;;;3.83;0.80;;;19.00;27.90;;;;;;5099290;28;20242;-74
2023/04/10 07:31:57;;;;;;;2.37;1.23;;;18.90;28.80;;;;;;5121871;28;20223;-75
2023/04/10 07:34:25;;;;;;;0.83;0.80;;;18.80;29.40;;;;;;5114904;28;20207;-74
2023/04/10 07:36:52;;;;;;;2.63;1.20;;;18.80;29.50;;;;;;5114573;28;20303;-74
2023/04/10 07:39:19;;;;;;;3.77;1.10;;;18.60;30.60;;;;;;5101570;28;20190;-74
2023/04/10 07:41:47;;;;;;;3.33;0.83;;;18.60;32.10;;;;;;5096722;28;20664;-73
2023/04/10 07:44:14;;;;;;;1.10;0.70;;;18.50;32.70;;;;;;5093908;28;20175;-76
2023/04/10 07:46:42;;;;;;;1.93;0.70;;;18.40;33.20;;;;;;5094392;28;20173;-75
2023/04/10 07:49:09;;;;;;;1.57;0.80;;;18.40;34.70;;;;;;5094375;28;20237;-73
2023/04/10 07:51:36;;;;;;;1.73;0.90;;;18.30;35.60;;;;;;5094169;28;20187;-73
2023/04/10 07:54:04;;;;;;;1.40;0.70;;;18.20;36.10;;;;;;5093630;28;20214;-72
2023/04/10 07:56:32;;;;;;;2.40;1.10;;;18.20;37.30;;;;;;5094209;28;20172;-71
2023/04/10 07:59:00;;;;;;;1.80;0.93;;;18.10;39.00;;;;;;5093805;28;20190;-74
2023/04/10 08:01:28;;;;;;;2.10;0.60;;;18.10;39.70;;;;;;5111043;28;20178;-74
2023/04/10 08:03:56;;;;;;;1.60;0.60;;;18.00;40.10;;;;;;5113910;28;20182;-75
2023/04/10 08:06:23;;;;;;;1.40;0.90;;;17.90;42.20;;;;;;5113984;28;20175;-70
2023/04/10 08:08:53;;;;;;;2.40;0.90;;;17.90;43.00;;;;;;5114021;28;20619;-74
2023/04/10 08:11:27;;;;;;;2.07;1.00;;;17.80;44.10;;;;;;5096856;27;20187;-72
2023/04/10 08:14:04;;;;;;;2.07;1.10;;;17.70;45.90;;;;;;5093313;28;20198;-75
2023/04/10 08:16:33;;;;;;;1.97;0.80;;;17.70;47.00;;;;;;5092071;28;20179;-74
2023/04/10 08:19:01;;;;;;;1.80;0.90;;;17.60;48.20;;;;;;5114088;28;20239;-73
2023/04/10 08:21:30;;;;;;;1.27;0.90;;;17.50;49.70;;;;;;5113758;28;20217;-74
2023/04/10 08:24:00;;;;;;;5.20;1.17;;;17.50;50.70;;;;;;5112767;28;20175;-73
2023/04/10 08:26:29;;;;;;;1.77;0.73;;;17.40;51.70;;;;;;5113923;27;20553;-72
2023/04/10 08:28:58;;;;;;;2.33;1.10;;;17.30;53.60;;;;;;5113517;28;20193;-74
2023/04/10 08:31:27;;;;;;;3.80;1.00;;;17.10;56.40;;;;;;5113642;28;20621;-74
2023/04/10 08:33:54;;;;;;;1.87;1.10;;;17.10;61.90;;;;;;5113380;28;20304;-74
2023/04/10 08:36:22;;;;;;;3.33;1.40;;;17.00;63.60;;;;;;5111728;28;20553;-72
2023/04/10 08:38:49;;;;;;;3.87;1.50;;;17.00;64.60;;;;;;5114075;27;20205;-72
2023/04/10 08:41:18;;;;;;;2.73;1.10;;;16.90;67.70;;;;;;5113121;28;20265;-75
2023/04/10 08:43:46;;;;;;;1.43;0.90;;;16.80;71.40;;;;;;5111962;28;20186;-75
2023/04/10 08:46:14;;;;;;;1.50;1.03;;;16.60;81.90;;;;;;5099808;28;20186;-73
2023/04/10 08:48:57;;;;;;;1.17;1.00;;;16.50;85.60;;;;;;5093474;28;20266;-74
2023/04/10 08:51:31;;;;;;;1.53;0.83;;;16.40;93.20;;;;;;5111601;28;20281;-73
2023/04/10 08:54:10;;;;;;;2.83;0.90;;;16.40;92.10;;;;;;5113373;28;20238;-73
2023/04/10 08:56:39;;;;;;;2.20;1.13;;;16.40;94.30;;;;;;5113196;28;20230;-75
2023/04/10 08:59:08;;;;;;;2.07;1.20;;;16.30;96.90;;;;;;5113015;28;20220;-71
2023/04/10 09:01:35;;;;;;;2.93;0.93;;;16.20;99.90;;;;;;5111648;28;20205;-74
2023/04/10 09:04:03;;;;;;;2.80;1.10;;;16.10;99.90;;;;;;5106583;28;20187;-74
2023/04/10 09:06:31;;;;;;;2.43;1.10;;;16.00;99.90;;;;;;5093663;28;20752;-75
2023/04/10 09:08:58;;;;;;;3.87;1.00;;;16.00;99.90;;;;;;5092398;28;20586;-73
2023/04/10 09:11:51;;;;;;;1.97;1.00;;;15.90;99.90;;;;;;5093976;28;20179;-74
2023/04/10 09:14:23;;;;;;;3.03;1.07;;;15.90;99.90;;;;;;5093895;28;20199;-72
2023/04/10 09:16:51;;;;;;;2.40;1.10;;;15.80;99.90;;;;;;5102676;28;20586;-72
2023/04/10 09:19:33;;;;;;;1.33;0.97;;;15.80;99.90;;;;;;5093895;28;20183;-73
2023/04/10 09:22:00;;;;;;;1.73;0.80;;;15.60;99.90;;;;;;5099030;28;20236;-74
2023/04/10 09:24:28;;;;;;;4.63;1.40;;;15.50;99.90;;;;;;5114215;28;20186;-73
2023/04/10 09:26:55;;;;;;;4.63;1.13;;;15.40;99.90;;;;;;5114111;28;20170;-73
2023/04/10 09:29:23;;;;;;;6.60;1.00;;;15.50;99.90;;;;;;5111825;28;20284;-73
2023/04/10 09:31:51;;;;;;;2.13;1.07;;;15.60;99.90;;;;;;5113863;28;20275;-73
2023/04/10 09:34:23;;;;;;;2.57;0.97;;;15.60;99.90;;;;;;5113639;28;20222;-72
2023/04/10 09:36:58;;;;;;;3.37;1.03;;;15.60;99.90;;;;;;5114002;28;20644;-70
2023/04/10 09:39:42;;;;;;;5.77;1.10;;;15.60;99.90;;;;;;5113438;28;20234;-74
2023/04/10 09:42:11;;;;;;;5.63;1.13;;;15.60;99.90;;;;;;5113783;28;20533;-73
2023/04/10 09:44:40;;;;;;;2.83;1.00;;;15.60;99.90;;;;;;5107810;28;20184;-73
2023/04/10 09:47:14;;;;;;;4.50;1.07;;;15.50;99.90;;;;;;5096302;28;20638;-73
2023/04/10 09:49:48;;;;;;;3.17;1.30;;;15.50;99.90;;;;;;5113569;28;20175;-73
2023/04/10 09:52:26;;;;;;;3.87;1.00;;;15.50;99.90;;;;;;5113506;28;20593;-74
2023/04/10 09:55:00;;;;;;;4.10;1.40;;;15.40;99.90;;;;;;5113477;28;20213;-73
2023/04/10 09:57:30;;;;;;;6.17;1.70;;;15.30;99.90;;;;;;5113676;28;20167;-73
2023/04/10 09:59:59;;;;;;;5.90;2.60;;;15.30;99.90;;;;;;5113501;28;20175;-74
2023/04/10 10:02:30;;;;;;;3.60;1.30;;;15.20;99.90;;;;;;5105870;28;20643;-75
2023/04/10 10:05:01;;;;;;;2.23;1.20;;;15.20;99.90;;;;;;5109364;28;20299;-72
2023/04/10 10:07:30;;;;;;;2.40;0.90;;;15.20;99.90;;;;;;5112968;28;20183;-73
2023/04/10 10:10:00;;;;;;;4.70;2.07;;;15.30;99.90;;;;;;5113447;28;20177;-74
2023/04/10 10:12:45;;;;;;;2.03;1.20;;;15.20;99.90;;;;;;5096642;28;20702;-74
2023/04/10 10:15:31;;;;;;;1.77;1.00;;;15.10;99.90;;;;;;5092846;28;20219;-73
2023/04/10 10:18:07;;;;;;;1.70;0.80;;;15.10;99.90;;;;;;5092316;28;20218;-71
2023/04/10 10:20:37;;;;;;;3.60;0.80;;;15.10;99.90;;;;;;5093890;28;20206;-73
2023/04/10 10:23:06;;;;;;;1.27;0.90;;;15.10;99.90;;;;;;5092892;28;20174;-73
2023/04/10 10:25:36;;;;;;;4.50;1.00;;;15.10;99.90;;;;;;5092046;28;20513;-74
2023/04/10 10:28:04;;;;;;;2.87;1.17;;;15.00;99.90;;;;;;5092768;28;20175;-73
2023/04/10 10:30:36;;;;;;;2.57;0.90;;;14.90;99.90;;;;;;5092378;28;20670;-74
2023/04/10 10:33:07;;;;;;;2.17;1.00;;;14.80;99.90;;;;;;5092649;28;20175;-70
2023/04/10 10:35:37;;;;;;;3.70;0.90;;;14.70;99.90;;;;;;5092790;28;20182;-73
2023/04/10 10:38:06;;;;;;;1.87;1.00;;;14.60;99.90;;;;;;5092378;28;20634;-74
2023/04/10 10:41:13;;;;;;;2.90;0.80;;;14.50;99.90;;;;;;5092481;28;20206;-74
2023/04/10 10:44:13;;;;;;;2.40;1.00;;;14.30;99.90;;;;;;5062131;28;20268;-73
2023/04/10 10:46:58;;;;;;;5.13;1.20;;;14.10;99.90;;;;;;5092228;28;20176;-74
2023/04/10 10:49:58;;;;;;;3.20;1.30;;;14.00;99.90;;;;;;5092908;28;20206;-73
2023/04/10 10:52:56;;;;;;;2.23;1.10;;;13.90;99.90;;;;;;5087760;28;20240;-75
2023/04/10 10:55:23;;;;;;;5.63;1.47;;;13.80;99.90;;;;;;5092710;28;20218;-73
2023/04/10 10:58:01;;;;;;;1.97;1.33;;;13.70;99.90;;;;;;5092371;28;20189;-73
2023/04/10 11:00:51;;;;;;;3.03;1.30;;;13.60;99.90;;;;;;5092503;28;20176;-73
2023/04/10 11:03:19;;;;;;;7.60;1.30;;;13.60;99.90;;;;;;5083241;28;20244;-73
2023/04/10 11:06:11;;;;;;;5.07;1.57;;;13.50;99.90;;;;;;5092648;28;20181;-73
2023/04/10 11:08:47;;;;;;;1.00;0.80;;;13.40;99.90;;;;;;5092578;28;20191;-73
2023/04/10 11:11:15;;;;;;;3.20;1.30;;;13.40;99.90;;;;;;5092478;28;20178;-73
2023/04/10 11:14:02;;;;;;;3.57;1.20;;;13.20;99.90;;;;;;5091879;28;20209;-71
2023/04/10 11:16:34;;;;;;;1.17;0.97;;;13.20;99.90;;;;;;5091744;28;20583;-72
2023/04/10 11:19:02;;;;;;;3.07;1.20;;;13.10;99.90;;;;;;5092301;28;20206;-73
2023/04/10 11:21:30;;;;;;;2.47;1.10;;;13.00;99.90;;;;;;5092316;28;20649;-73
2023/04/10 11:23:58;;;;;;;2.57;1.10;;;13.00;99.90;;;;;;5097474;28;20186;-73
2023/04/10 11:29:03;;;;;;;3.73;1.20;;;13.00;99.90;;;;;;5092323;28;20595;-73
2023/04/10 11:31:31;;;;;;;3.97;1.67;;;13.00;99.90;;;;;;5092287;28;20514;-73
2023/04/10 11:34:06;;;;;;;3.57;1.23;;;13.00;99.90;;;;;;5092067;28;20218;-72
2023/04/10 11:36:37;;;;;;;3.90;1.40;;;13.10;99.90;;;;;;5093581;28;20637;-73
2023/04/10 11:39:12;;;;;;;2.53;1.40;;;13.30;99.90;;;;;;5095847;28;20208;-73
2023/04/10 11:41:41;;;;;;;4.30;1.40;;;13.40;99.90;;;;;;5095955;28;20170;-73
2023/04/10 11:44:10;;;;;;;3.50;1.47;;;13.40;99.90;;;;;;5096444;28;20721;-71
2023/04/10 11:46:41;;;;;;;2.33;1.30;;;13.40;99.90;;;;;;5095694;28;20196;-70
2023/04/10 11:49:10;;;;;;;2.73;1.73;;;13.30;99.90;;;;;;5096893;28;20183;-74
2023/04/10 11:51:38;;;;;;;3.63;1.80;;;13.20;99.90;;;;;;5095968;28;20262;-74
2023/04/10 11:54:23;;;;;;;3.87;1.63;;;13.10;99.90;;;;;;5095449;28;20220;-74
2023/04/10 11:57:02;;;;;;;2.13;1.40;;;13.00;99.90;;;;;;5095328;28;20185;-73
2023/04/10 11:59:30;;;;;;;2.47;1.13;;;12.90;99.90;;;;;;5095348;28;20602;-74
2023/04/10 12:02:13;;;;;;;3.33;1.37;;;12.80;99.90;;;;;;5095494;28;20173;-74
2023/04/10 12:04:42;;;;;;;2.90;1.20;;;12.70;99.90;;;;;;5095373;28;20168;-72
2023/04/10 12:07:10;;;;;;;3.50;1.13;;;12.60;99.90;;;;;;5095276;28;20257;-74
2023/04/10 12:09:37;;;;;;;5.90;1.27;;;12.50;99.90;;;;;;5095329;28;20224;-74
2023/04/10 12:12:07;;;;;;;4.10;1.40;;;12.50;99.90;;;;;;5095327;28;20182;-73
2023/04/10 12:14:40;;;;;;;3.10;1.60;;;12.40;99.90;;;;;;5094878;28;20765;-72
2023/04/10 12:17:09;;;;;;;4.70;1.40;;;12.40;99.90;;;;;;5094918;28;20221;-72
2023/04/10 12:19:40;;;;;;;3.80;1.30;;;12.30;99.90;;;;;;5095155;28;20178;-72
2023/04/10 12:22:11;;;;;;;1.20;0.93;;;12.30;99.90;;;;;;5095118;28;20178;-73
2023/04/10 12:24:46;;;;;;;2.33;1.30;;;12.20;99.90;;;;;;5094944;28;20594;-73
2023/04/10 12:27:20;;;;;;;2.10;1.00;;;12.20;99.90;;;;;;5094537;28;20226;-74
2023/04/10 12:29:49;;;;;;;3.87;1.10;;;12.20;99.90;;;;;;5093566;28;20242;-73
2023/04/10 12:32:17;;;;;;;2.40;1.20;;;12.10;99.90;;;;;;5094945;28;20261;-73
2023/04/10 12:34:52;;;;;;;1.83;1.33;;;12.00;99.90;;;;;;5094700;28;20807;-72
2023/04/10 12:37:20;;;;;;;2.30;1.27;;;12.00;99.90;;;;;;5094336;28;20233;-73
2023/04/10 12:39:48;;;;;;;4.03;1.60;;;11.90;99.90;;;;;;5094696;28;20183;-73
2023/04/10 12:42:16;;;;;;;3.37;1.77;;;11.90;99.90;;;;;;5094633;28;20186;-73
2023/04/10 12:44:57;;;;;;;5.53;1.70;;;11.90;99.90;;;;;;5094699;28;20215;-73
2023/04/10 12:47:26;;;;;;;2.90;1.70;;;11.80;99.90;;;;;;5093583;28;20182;-74
2023/04/10 12:50:03;;;;;;;5.60;2.00;;;11.80;99.90;;;;;;5094573;28;20186;-72
2023/04/10 12:52:31;;;;;;;3.30;2.30;;;11.80;99.90;;;;;;5093078;28;20231;-74
2023/04/10 12:55:13;;;;;;;3.73;2.10;;;11.80;99.90;;;;;;5094425;28;20273;-72
2023/04/10 12:57:42;;;;;;;5.13;2.60;;;11.70;99.90;;;;;;5094524;28;20170;-73
2023/04/10 13:00:12;;;;;;;5.83;2.23;;;11.70;99.90;;;;;;5094407;28;20212;-73
2023/04/10 13:02:40;;;;;;;3.00;2.17;;;11.70;99.90;;;;;;5094104;28;20174;-73
2023/04/10 13:05:08;;;;;;;4.77;2.10;;;11.70;99.90;;;;;;5094492;28;20174;-73
2023/04/10 13:07:36;;;;;;;5.13;2.33;;;11.60;99.90;;;;;;5105620;28;20193;-73